createdAt,value
2023-04-14T00:00:27.910Z,99492.38
2023-04-14T00:02:54.434Z,99492.84
2023-04-14T00:05:21.196Z,99494.44
2023-04-14T00:07:47.676Z,99487.19
2023-04-14T00:10:14.145Z,99483.13
2023-04-14T00:12:40.575Z,99473.31
2023-04-14T00:15:06.997Z,99474.31
2023-04-14T00:17:33.525Z,99476.09
2023-04-14T00:20:00.025Z,99475.34
2023-04-14T00:22:26.563Z,99480.34
2023-04-14T00:24:53.082Z,99479.78
2023-04-14T00:27:19.543Z,99480.97
2023-04-14T00:29:46.135Z,99492.28
2023-04-14T00:32:12.600Z,99487.81
2023-04-14T00:34:39.017Z,99486.12
2023-04-14T00:37:05.488Z,99487.84
2023-04-14T00:39:31.964Z,99479.06
2023-04-14T00:41:58.374Z,99468.88
2023-04-14T00:44:25.694Z,99477.19
2023-04-14T00:46:52.242Z,99480.78
2023-04-14T00:49:20.186Z,99476.81
2023-04-14T00:51:46.618Z,99487.72
2023-04-14T00:54:13.384Z,99491.66
2023-04-14T00:56:39.847Z,99482.94
2023-04-14T00:59:06.489Z,99484.56
2023-04-14T01:01:33.718Z,99487.81
2023-04-14T01:04:00.525Z,99489.16
2023-04-14T01:06:27.372Z,99494.19
2023-04-14T01:08:53.793Z,99489.44
2023-04-14T01:11:20.231Z,99489.72
2023-04-14T01:13:46.651Z,99494.34
2023-04-14T01:16:13.104Z,99494.84
2023-04-14T01:18:39.553Z,99490.34
2023-04-14T01:21:06.541Z,99488.38
2023-04-14T01:23:34.889Z,99492.75
2023-04-14T01:26:01.310Z,99499.75
2023-04-14T01:28:27.731Z,99508.97
2023-04-14T01:30:54.173Z,99508.16
2023-04-14T01:33:20.600Z,99506.56
2023-04-14T01:35:47.102Z,99511.59
2023-04-14T01:38:13.528Z,99503.19
2023-04-14T01:40:39.964Z,99502.44
2023-04-14T01:43:06.565Z,99503.09
2023-04-14T01:45:33.048Z,99494.97
2023-04-14T01:47:59.598Z,99507.47
2023-04-14T01:50:26.081Z,99511.16
2023-04-14T01:52:54.330Z,99519.00
2023-04-14T01:55:20.965Z,99516.41
2023-04-14T01:57:47.427Z,99507.25
2023-04-14T02:00:13.901Z,99502.56
2023-04-14T02:02:40.522Z,99501.06
2023-04-14T02:05:07.456Z,99494.34
2023-04-14T02:07:33.891Z,99491.78
2023-04-14T02:10:00.618Z,99487.56
2023-04-14T02:12:28.068Z,99488.72
2023-04-14T02:14:54.498Z,99478.47
2023-04-14T02:17:21.853Z,99483.50
2023-04-14T02:19:48.388Z,99488.91
2023-04-14T02:22:14.812Z,99480.84
2023-04-14T02:24:41.233Z,99483.75
2023-04-14T02:27:07.727Z,99480.94
2023-04-14T02:29:34.157Z,99485.78
2023-04-14T02:32:00.681Z,99478.84
2023-04-14T02:34:27.089Z,99486.84
2023-04-14T02:36:53.542Z,99477.66
2023-04-14T02:39:21.192Z,99479.53
2023-04-14T02:41:47.674Z,99476.06
2023-04-14T02:44:14.107Z,99482.00
2023-04-14T02:46:40.731Z,99474.06
2023-04-14T02:49:07.505Z,99477.78
2023-04-14T02:51:33.959Z,99474.87
2023-04-14T02:54:00.457Z,99481.97
2023-04-14T02:56:26.910Z,99484.19
2023-04-14T02:58:54.152Z,99488.75
2023-04-14T03:01:20.600Z,99493.53
2023-04-14T03:03:47.111Z,99491.66
2023-04-14T03:06:15.688Z,99488.31
2023-04-14T03:08:42.190Z,99489.00
2023-04-14T03:11:08.627Z,99481.47
2023-04-14T03:13:35.075Z,99494.88
2023-04-14T03:16:01.564Z,99484.25
2023-04-14T03:18:28.114Z,99482.75
2023-04-14T03:20:56.023Z,99479.50
2023-04-14T03:23:23.111Z,99485.63
2023-04-14T03:25:49.561Z,99487.84
2023-04-14T03:28:16.176Z,99492.34
2023-04-14T03:30:42.587Z,99487.34
2023-04-14T03:33:09.059Z,99477.03
2023-04-14T03:35:35.490Z,99479.81
2023-04-14T03:38:02.617Z,99471.94
2023-04-14T03:40:32.244Z,99465.94
2023-04-14T03:42:58.723Z,99465.56
2023-04-14T03:45:25.223Z,99472.06
2023-04-14T03:47:53.708Z,99486.94
2023-04-14T03:50:22.072Z,99485.19
2023-04-14T03:52:48.546Z,99487.47
2023-04-14T03:55:14.967Z,99485.91
2023-04-14T03:57:41.393Z,99476.84
2023-04-14T04:00:09.199Z,99475.75
2023-04-14T04:02:36.608Z,99464.53
2023-04-14T04:05:03.326Z,99461.88
2023-04-14T04:07:29.857Z,99459.34
2023-04-14T04:09:56.359Z,99464.06
2023-04-14T04:12:22.758Z,99474.59
2023-04-14T04:14:49.271Z,99458.97
2023-04-14T04:17:16.508Z,99474.25
2023-04-14T04:19:42.980Z,99474.16
2023-04-14T04:22:09.391Z,99477.50
2023-04-14T04:24:35.869Z,99462.94
2023-04-14T04:27:02.304Z,99466.59
2023-04-14T04:29:28.852Z,99476.69
2023-04-14T04:31:55.811Z,99474.56
2023-04-14T04:34:23.575Z,99476.34
2023-04-14T04:36:49.995Z,99482.94
2023-04-14T04:39:16.432Z,99479.81
2023-04-14T04:41:43.003Z,99488.63
2023-04-14T04:44:09.992Z,99475.75
2023-04-14T04:46:36.583Z,99488.53
2023-04-14T04:49:03.367Z,99483.53
2023-04-14T04:51:30.055Z,99488.28
2023-04-14T04:53:56.476Z,99490.03
2023-04-14T04:56:22.898Z,99494.00
2023-04-14T04:58:49.407Z,99501.59
2023-04-14T05:01:17.072Z,99502.88
2023-04-14T05:03:43.673Z,99505.78
2023-04-14T05:06:10.096Z,99504.81
2023-04-14T05:08:36.581Z,99504.84
2023-04-14T05:11:03.017Z,99510.88
2023-04-14T05:13:29.495Z,99506.69
2023-04-14T05:15:55.929Z,99506.56
2023-04-14T05:18:22.362Z,99509.81
2023-04-14T05:20:48.784Z,99516.66
2023-04-14T05:23:15.231Z,99509.97
2023-04-14T05:25:41.705Z,99505.50
2023-04-14T05:28:08.590Z,99502.59
2023-04-14T05:30:35.020Z,99501.81
2023-04-14T05:33:01.887Z,99504.59
2023-04-14T05:35:28.414Z,99508.78
2023-04-14T05:37:54.836Z,99503.97
2023-04-14T05:40:22.436Z,99509.31
2023-04-14T05:42:48.842Z,99522.47
2023-04-14T05:45:15.625Z,99522.88
2023-04-14T05:47:42.137Z,99524.81
2023-04-14T05:50:08.726Z,99521.97
2023-04-14T05:52:37.062Z,99516.00
2023-04-14T05:55:03.496Z,99521.19
2023-04-14T05:57:29.942Z,99515.53
2023-04-14T05:59:58.202Z,99523.16
2023-04-14T06:02:25.052Z,99520.66
2023-04-14T06:04:51.713Z,99518.97
2023-04-14T06:07:18.267Z,99521.75
2023-04-14T06:09:46.628Z,99531.75
2023-04-14T06:12:14.316Z,99516.34
2023-04-14T06:14:40.958Z,99518.31
2023-04-14T06:17:07.374Z,99520.16
2023-04-14T06:19:33.894Z,99513.37
2023-04-14T06:22:00.419Z,99511.06
2023-04-14T06:24:26.905Z,99501.78
2023-04-14T06:26:53.325Z,99510.88
2023-04-14T06:29:19.849Z,99502.88
2023-04-14T06:31:46.473Z,99496.75
2023-04-14T06:34:13.084Z,99501.09
2023-04-14T06:36:39.519Z,99494.06
2023-04-14T06:39:06.156Z,99497.66
2023-04-14T06:41:32.583Z,99497.66
2023-04-14T06:43:59.005Z,99486.94
2023-04-14T06:46:25.653Z,99482.50
2023-04-14T06:48:52.170Z,99482.81
2023-04-14T06:51:18.721Z,99476.53
2023-04-14T06:53:45.207Z,99480.59
2023-04-14T06:56:11.639Z,99480.66
2023-04-14T06:58:38.194Z,99478.03
2023-04-14T07:01:04.751Z,99480.84
2023-04-14T07:03:34.811Z,99481.16
2023-04-14T07:06:01.239Z,99469.97
2023-04-14T07:08:32.217Z,99474.38
2023-04-14T07:10:58.653Z,99477.25
2023-04-14T07:13:25.052Z,99474.72
2023-04-14T07:15:51.600Z,99469.69
2023-04-14T07:18:18.076Z,99470.00
2023-04-14T07:20:44.667Z,99469.97
2023-04-14T07:23:11.280Z,99468.34
2023-04-14T07:25:37.738Z,99466.59
2023-04-14T07:28:04.702Z,99473.09
2023-04-14T07:30:32.101Z,99478.88
2023-04-14T07:32:58.704Z,99475.16
2023-04-14T07:35:25.210Z,99476.91
2023-04-14T07:37:51.699Z,99484.66
2023-04-14T07:40:18.239Z,99479.09
2023-04-14T07:42:44.708Z,99481.44
2023-04-14T07:45:11.230Z,99477.72
2023-04-14T07:47:37.773Z,99481.06
2023-04-14T07:50:04.205Z,99488.53
2023-04-14T07:52:30.714Z,99488.16
2023-04-14T07:54:57.134Z,99489.31
2023-04-14T07:57:23.704Z,99493.25
2023-04-14T07:59:50.168Z,99493.81
2023-04-14T08:02:16.703Z,99498.41
2023-04-14T08:04:43.429Z,99495.00
2023-04-14T08:07:09.850Z,99496.00
2023-04-14T08:09:36.291Z,99488.72
2023-04-14T08:12:02.961Z,99481.44
2023-04-14T08:14:29.430Z,99476.81
2023-04-14T08:16:55.844Z,99481.78
2023-04-14T08:19:22.272Z,99482.81
2023-04-14T08:21:48.684Z,99477.84
2023-04-14T08:24:15.118Z,99477.50
2023-04-14T08:26:41.599Z,99473.09
2023-04-14T08:29:08.034Z,99463.50
2023-04-14T08:31:34.787Z,99470.22
2023-04-14T08:34:01.237Z,99473.44
2023-04-14T08:36:28.032Z,99463.59
2023-04-14T08:38:54.470Z,99471.81
2023-04-14T08:41:21.561Z,99465.34
2023-04-14T08:43:47.970Z,99479.12
2023-04-14T08:46:14.439Z,99472.63
2023-04-14T08:48:40.965Z,99478.44
2023-04-14T08:51:07.373Z,99476.34
2023-04-14T08:53:33.855Z,99467.09
2023-04-14T08:56:00.434Z,99462.56
2023-04-14T08:58:26.905Z,99464.88
2023-04-14T09:00:53.358Z,99454.53
2023-04-14T09:03:20.071Z,99460.56
2023-04-14T09:05:46.644Z,99455.25
2023-04-14T09:08:13.094Z,99453.50
2023-04-14T09:10:41.047Z,99455.50
2023-04-14T09:13:07.829Z,99456.19
2023-04-14T09:15:34.262Z,99448.06
2023-04-14T09:18:00.722Z,99444.81
2023-04-14T09:20:38.964Z,99441.34
2023-04-14T09:23:07.002Z,99446.13
2023-04-14T09:25:33.892Z,99454.56
2023-04-14T09:28:00.327Z,99441.38
2023-04-14T09:30:26.889Z,99442.06
2023-04-14T09:32:57.144Z,99445.41
2023-04-14T09:35:23.574Z,99454.69
2023-04-14T09:37:50.018Z,99454.94
2023-04-14T09:40:16.461Z,99446.00
2023-04-14T09:42:43.188Z,99460.81
2023-04-14T09:45:09.790Z,99458.84
2023-04-14T09:47:36.314Z,99463.69
2023-04-14T09:50:03.769Z,99464.16
2023-04-14T09:52:30.617Z,99459.87
2023-04-14T09:54:57.031Z,99462.19
2023-04-14T09:57:23.459Z,99458.88
2023-04-14T09:59:49.898Z,99456.91
2023-04-14T10:02:16.607Z,99460.72
2023-04-14T10:04:43.226Z,99452.72
2023-04-14T10:07:11.373Z,99462.22
2023-04-14T10:09:38.016Z,99450.53
2023-04-14T10:12:04.499Z,99449.69
2023-04-14T10:14:30.951Z,99452.25
2023-04-14T10:16:57.836Z,99450.63
2023-04-14T10:19:24.289Z,99443.69
2023-04-14T10:21:50.714Z,99446.22
2023-04-14T10:24:17.189Z,99441.12
2023-04-14T10:26:47.321Z,99428.87
2023-04-14T10:29:13.742Z,99430.34
2023-04-14T10:31:40.364Z,99434.66
2023-04-14T10:34:07.094Z,99439.03
2023-04-14T10:36:36.938Z,99447.63
2023-04-14T10:39:03.726Z,99443.19
2023-04-14T10:41:30.343Z,99428.75
2023-04-14T10:43:56.809Z,99431.41
2023-04-14T10:46:24.749Z,99425.84
2023-04-14T10:48:51.448Z,99426.09
2023-04-14T10:51:18.241Z,99424.81
2023-04-14T10:53:45.228Z,99437.87
2023-04-14T10:56:12.295Z,99429.09
2023-04-14T10:58:38.962Z,99431.06
2023-04-14T11:01:05.463Z,99428.25
2023-04-14T11:03:35.030Z,99434.66
2023-04-14T11:06:01.983Z,99421.44
2023-04-14T11:08:28.438Z,99418.22
2023-04-14T11:10:54.871Z,99415.78
2023-04-14T11:13:21.373Z,99413.56
2023-04-14T11:15:48.153Z,99405.34
2023-04-14T11:18:14.802Z,99406.03
2023-04-14T11:20:42.629Z,99410.69
2023-04-14T11:23:09.806Z,99406.06
2023-04-14T11:25:36.212Z,99399.19
2023-04-14T11:28:03.411Z,99404.19
2023-04-14T11:30:29.902Z,99397.47
2023-04-14T11:32:57.933Z,99396.91
2023-04-14T11:35:24.482Z,99391.31
2023-04-14T11:37:50.997Z,99392.16
2023-04-14T11:40:17.457Z,99399.09
2023-04-14T11:42:43.884Z,99401.19
2023-04-14T11:45:10.299Z,99386.22
2023-04-14T11:47:36.878Z,99393.19
2023-04-14T11:50:04.990Z,99395.00
2023-04-14T11:52:31.729Z,99388.31
2023-04-14T11:54:58.229Z,99388.19
2023-04-14T11:57:24.664Z,99376.75
2023-04-14T11:59:51.718Z,99370.56
2023-04-14T12:02:18.382Z,99381.88
2023-04-14T12:04:46.075Z,99369.91
2023-04-14T12:07:12.940Z,99380.66
2023-04-14T12:09:39.707Z,99370.22
2023-04-14T12:12:06.152Z,99365.41
2023-04-14T12:14:32.578Z,99358.75
2023-04-14T12:16:59.018Z,99360.97
2023-04-14T12:19:25.517Z,99367.47
2023-04-14T12:21:53.215Z,99358.63
2023-04-14T12:24:19.653Z,99361.56
2023-04-14T12:26:46.080Z,99367.47
2023-04-14T12:29:12.523Z,99356.22
2023-04-14T12:31:40.282Z,99359.22
2023-04-14T12:34:07.002Z,99359.69
2023-04-14T12:36:48.955Z,99344.97
2023-04-14T12:39:16.852Z,99350.41
2023-04-14T12:41:43.443Z,99354.44
2023-04-14T12:44:10.416Z,99345.16
2023-04-14T12:46:36.897Z,99344.13
2023-04-14T12:49:03.601Z,99340.97
2023-04-14T12:51:30.446Z,99337.97
2023-04-14T12:53:57.048Z,99345.34
2023-04-14T12:56:23.784Z,99336.28
2023-04-14T12:58:51.543Z,99341.22
2023-04-14T13:01:18.220Z,99339.63
2023-04-14T13:03:49.728Z,99338.53
2023-04-14T13:06:19.278Z,99334.88
2023-04-14T13:08:46.221Z,99330.06
2023-04-14T13:11:12.670Z,99337.31
2023-04-14T13:13:39.174Z,99332.25
2023-04-14T13:16:13.026Z,99336.13
2023-04-14T13:18:41.429Z,99328.97
2023-04-14T13:21:07.998Z,99329.69
2023-04-14T13:23:34.466Z,99328.84
2023-04-14T13:26:00.983Z,99324.25
2023-04-14T13:28:27.531Z,99321.78
2023-04-14T13:30:54.049Z,99322.00
2023-04-14T13:33:20.489Z,99321.63
2023-04-14T13:35:46.928Z,99313.16
2023-04-14T13:38:13.809Z,99311.09
2023-04-14T13:40:40.657Z,99318.56
2023-04-14T13:43:08.546Z,99312.63
2023-04-14T13:45:36.026Z,99306.97
2023-04-14T13:48:02.856Z,99308.03
2023-04-14T13:50:29.829Z,99305.44
2023-04-14T13:52:56.337Z,99310.97
2023-04-14T13:55:22.767Z,99301.50
2023-04-14T13:57:49.192Z,99309.03
2023-04-14T14:00:15.872Z,99311.81
2023-04-14T14:02:42.484Z,99300.25
2023-04-14T14:05:09.088Z,99306.25
2023-04-14T14:07:35.757Z,99310.16
2023-04-14T14:10:02.203Z,99305.09
2023-04-14T14:12:28.612Z,99317.38
2023-04-14T14:14:55.099Z,99317.53
2023-04-14T14:17:21.600Z,99313.34
2023-04-14T14:19:48.439Z,99320.97
2023-04-14T14:22:15.067Z,99309.41
2023-04-14T14:24:41.502Z,99318.91
2023-04-14T14:27:07.952Z,99316.06
2023-04-14T14:29:35.285Z,99315.22
2023-04-14T14:32:02.162Z,99319.62
2023-04-14T14:34:28.614Z,99312.06
2023-04-14T14:36:55.398Z,99322.78
2023-04-14T14:39:21.984Z,99321.53
2023-04-14T14:41:48.704Z,99321.94
2023-04-14T14:44:15.153Z,99322.22
2023-04-14T14:46:43.107Z,99330.50
2023-04-14T14:49:09.589Z,99330.72
2023-04-14T14:51:36.379Z,99329.16
2023-04-14T14:54:09.918Z,99329.50
2023-04-14T14:56:36.874Z,99323.28
2023-04-14T14:59:03.485Z,99331.16
2023-04-14T15:01:29.938Z,99330.31
2023-04-14T15:03:57.197Z,99324.38
2023-04-14T15:06:23.741Z,99335.53
2023-04-14T15:08:50.335Z,99333.22
2023-04-14T15:11:16.769Z,99331.53
2023-04-14T15:13:46.252Z,99324.81
2023-04-14T15:16:12.910Z,99326.69
2023-04-14T15:18:39.388Z,99330.44
2023-04-14T15:21:05.834Z,99322.00
2023-04-14T15:23:37.334Z,99334.00
2023-04-14T15:26:03.789Z,99329.56
2023-04-14T15:28:30.805Z,99337.72
2023-04-14T15:30:57.235Z,99336.66
2023-04-14T15:33:24.039Z,99344.28
2023-04-14T15:35:50.475Z,99339.31
2023-04-14T15:38:17.058Z,99328.66
2023-04-14T15:40:43.475Z,99335.25
2023-04-14T15:43:09.963Z,99340.59
2023-04-14T15:45:36.478Z,99340.00
2023-04-14T15:48:02.986Z,99338.97
2023-04-14T15:50:29.495Z,99346.66
2023-04-14T15:52:56.064Z,99345.81
2023-04-14T15:55:22.499Z,99341.50
2023-04-14T15:57:49.338Z,99340.44
2023-04-14T16:00:16.832Z,99341.88
2023-04-14T16:02:43.370Z,99345.75
2023-04-14T16:05:10.111Z,99344.09
2023-04-14T16:07:36.635Z,99350.91
2023-04-14T16:10:03.410Z,99338.28
2023-04-14T16:12:30.711Z,99342.91
2023-04-14T16:14:57.455Z,99345.87
2023-04-14T16:17:27.108Z,99341.84
2023-04-14T16:19:53.930Z,99347.44
2023-04-14T16:22:20.626Z,99339.03
2023-04-14T16:24:47.153Z,99336.81
2023-04-14T16:27:13.695Z,99337.13
2023-04-14T16:29:41.796Z,99338.13
2023-04-14T16:32:08.575Z,99342.56
2023-04-14T16:34:35.250Z,99338.97
2023-04-14T16:37:01.931Z,99342.25
2023-04-14T16:39:29.837Z,99344.63
2023-04-14T16:41:56.864Z,99343.31
2023-04-14T16:44:23.304Z,99344.72
2023-04-14T16:46:49.802Z,99338.47
2023-04-14T16:49:16.369Z,99339.84
2023-04-14T16:51:43.692Z,99339.63
2023-04-14T16:54:10.143Z,99343.31
2023-04-14T16:56:37.537Z,99337.25
2023-04-14T16:59:04.570Z,99345.31
2023-04-14T17:01:31.993Z,99342.41
2023-04-14T17:03:58.777Z,99340.59
2023-04-14T17:06:25.372Z,99334.06
2023-04-14T17:08:51.814Z,99336.03
2023-04-14T17:11:18.287Z,99335.03
2023-04-14T17:13:44.838Z,99329.34
2023-04-14T17:16:11.693Z,99340.94
2023-04-14T17:18:38.450Z,99329.91
2023-04-14T17:21:05.738Z,99336.75
2023-04-14T17:23:32.195Z,99329.09
2023-04-14T17:25:58.844Z,99331.78
2023-04-14T17:28:26.889Z,99330.06
2023-04-14T17:30:53.372Z,99326.44
2023-04-14T17:33:20.981Z,99341.84
2023-04-14T17:35:47.446Z,99332.03
2023-04-14T17:38:13.905Z,99337.13
2023-04-14T17:40:40.367Z,99338.72
2023-04-14T17:43:06.820Z,99341.12
2023-04-14T17:45:34.875Z,99347.06
2023-04-14T17:48:01.393Z,99343.47
2023-04-14T17:50:27.917Z,99340.00
2023-04-14T17:52:54.414Z,99337.25
2023-04-14T17:55:21.679Z,99331.91
2023-04-14T17:57:48.235Z,99339.69
2023-04-14T18:00:15.022Z,99331.69
2023-04-14T18:02:41.625Z,99339.78
2023-04-14T18:05:08.211Z,99332.03
2023-04-14T18:07:34.804Z,99339.94
2023-04-14T18:10:01.250Z,99342.59
2023-04-14T18:12:27.865Z,99339.94
2023-04-14T18:14:54.344Z,99347.91
2023-04-14T18:17:20.866Z,99335.88
2023-04-14T18:19:47.358Z,99343.06
2023-04-14T18:22:13.775Z,99340.38
2023-04-14T18:29:39.308Z,99338.16
2023-04-14T18:32:05.765Z,99340.50
2023-04-14T18:34:32.293Z,99341.22
2023-04-14T18:36:58.965Z,99343.41
2023-04-14T18:39:25.469Z,99354.19
2023-04-14T18:41:51.991Z,99353.72
2023-04-14T18:44:18.471Z,99348.50
2023-04-14T18:46:44.998Z,99354.84
2023-04-14T18:49:11.884Z,99351.03
2023-04-14T18:51:38.316Z,99346.53
2023-04-14T18:54:04.865Z,99345.81
2023-04-14T18:56:31.753Z,99345.47
2023-04-14T18:58:58.340Z,99346.19
2023-04-14T19:01:24.968Z,99346.88
2023-04-14T19:03:51.513Z,99348.50
2023-04-14T19:06:18.131Z,99349.09
2023-04-14T19:08:44.850Z,99350.81
2023-04-14T19:11:11.977Z,99342.94
2023-04-14T19:13:38.816Z,99346.97
2023-04-14T19:16:06.005Z,99350.22
2023-04-14T19:18:33.033Z,99344.56
2023-04-14T19:20:59.504Z,99342.72
2023-04-14T19:23:25.969Z,99337.16
2023-04-14T19:25:53.681Z,99328.59
2023-04-14T19:28:20.099Z,99333.09
2023-04-14T19:30:46.641Z,99328.59
2023-04-14T19:33:13.263Z,99325.22
2023-04-14T19:35:39.752Z,99334.16
2023-04-14T19:38:07.923Z,99334.38
2023-04-14T19:40:34.340Z,99326.75
2023-04-14T19:43:01.258Z,99329.03
2023-04-14T19:45:27.679Z,99324.66
2023-04-14T19:47:54.413Z,99326.50
2023-04-14T19:50:22.855Z,99327.91
2023-04-14T19:52:51.471Z,99327.09
2023-04-14T19:55:17.952Z,99318.66
2023-04-14T19:57:44.357Z,99322.78
2023-04-14T20:00:12.322Z,99323.25
2023-04-14T20:02:38.859Z,99321.75
2023-04-14T20:05:05.617Z,99325.91
2023-04-14T20:07:32.106Z,99318.62
2023-04-14T20:10:00.407Z,99323.63
2023-04-14T20:12:26.917Z,99319.09
2023-04-14T20:14:57.869Z,99321.44
2023-04-14T20:17:27.434Z,99313.34
2023-04-14T20:19:53.973Z,99313.34
2023-04-14T20:22:20.379Z,99308.22
2023-04-14T20:24:46.816Z,99299.31
2023-04-14T20:27:13.595Z,99308.91
2023-04-14T20:29:40.297Z,99298.16
2023-04-14T20:32:09.154Z,99300.69
2023-04-14T20:34:38.705Z,99301.84
2023-04-14T20:37:06.483Z,99302.78
2023-04-14T20:39:33.457Z,99295.94
2023-04-14T20:42:00.385Z,99294.81
2023-04-14T20:44:27.571Z,99289.47
2023-04-14T20:46:54.463Z,99279.66
2023-04-14T20:49:20.877Z,99280.47
2023-04-14T20:51:48.467Z,99280.00
2023-04-14T20:54:14.871Z,99275.13
2023-04-14T20:56:41.302Z,99275.03
2023-04-14T20:59:07.712Z,99271.66
2023-04-14T21:01:34.164Z,99268.53
2023-04-14T21:04:00.751Z,99279.84
2023-04-14T21:06:27.250Z,99275.59
2023-04-14T21:08:53.655Z,99278.59
2023-04-14T21:11:20.297Z,99278.94
2023-04-14T21:15:30.355Z,99281.84
2023-04-14T21:16:33.549Z,99284.37
2023-04-14T21:19:00.373Z,99287.38
2023-04-14T21:21:27.232Z,99284.03
2023-04-14T21:23:53.661Z,99276.06
2023-04-14T21:26:20.086Z,99276.28
2023-04-14T21:28:46.664Z,99283.00
2023-04-14T21:31:13.135Z,99279.53
2023-04-14T21:33:41.923Z,99276.75
2023-04-14T21:36:09.881Z,99273.62
2023-04-14T21:38:36.317Z,99280.22
2023-04-14T21:41:02.840Z,99282.09
2023-04-14T21:43:29.262Z,99283.47
2023-04-14T21:45:56.234Z,99283.34
2023-04-14T21:48:23.704Z,99275.47
2023-04-14T21:50:50.165Z,99273.16
2023-04-14T21:53:16.884Z,99277.78
2023-04-14T21:55:43.291Z,99276.84
2023-04-14T21:58:09.792Z,99270.72
2023-04-14T22:00:37.472Z,99275.50
2023-04-14T22:03:04.025Z,99281.38
2023-04-14T22:05:30.647Z,99262.16
2023-04-14T22:07:57.060Z,99268.19
2023-04-14T22:10:23.667Z,99262.41
2023-04-14T22:12:51.015Z,99261.81
2023-04-14T22:15:17.439Z,99261.47
2023-04-14T22:17:44.211Z,99258.47
2023-04-14T22:20:10.694Z,99253.94
2023-04-14T22:22:37.111Z,99257.31
2023-04-14T22:25:03.558Z,99257.09
2023-04-14T22:27:29.990Z,99249.44
2023-04-14T22:29:56.801Z,99255.69
2023-04-14T22:32:23.320Z,99253.84
2023-04-14T22:34:49.757Z,99248.84
2023-04-14T22:37:16.169Z,99241.47
2023-04-14T22:39:43.015Z,99245.72
2023-04-14T22:42:09.473Z,99245.72
2023-04-14T22:44:35.936Z,99233.38
2023-04-14T22:47:02.446Z,99234.75
2023-04-14T22:49:28.885Z,99236.25
2023-04-14T22:51:55.323Z,99237.19
2023-04-14T22:54:21.732Z,99236.25
2023-04-14T22:56:48.419Z,99230.34
2023-04-14T22:59:15.130Z,99235.66
2023-04-14T23:01:41.574Z,99229.44
2023-04-14T23:04:08.123Z,99225.97
2023-04-14T23:06:34.644Z,99234.88
2023-04-14T23:09:01.344Z,99235.19
2023-04-14T23:11:27.922Z,99227.56
2023-04-14T23:13:54.328Z,99227.00
2023-04-14T23:16:20.869Z,99221.47
2023-04-14T23:18:52.560Z,99229.53
2023-04-14T23:21:19.581Z,99211.41
2023-04-14T23:23:46.265Z,99222.25
2023-04-14T23:26:13.400Z,99217.31
2023-04-14T23:28:39.825Z,99216.47
2023-04-14T23:31:06.678Z,99213.59
2023-04-14T23:33:33.121Z,99213.44
2023-04-14T23:35:59.626Z,99212.31
2023-04-14T23:38:26.373Z,99205.25
2023-04-14T23:40:58.816Z,99198.44
2023-04-14T23:43:25.243Z,99194.03
2023-04-14T23:45:52.714Z,99201.22
2023-04-14T23:48:19.146Z,99188.97
2023-04-14T23:50:58.974Z,99189.88
2023-04-14T23:53:29.857Z,99201.34
2023-04-14T23:55:56.594Z,99194.50
2023-04-14T23:58:26.874Z,99193.00
